Time;durP1;ratioP1;P1;durP2;ratioP2;P2;SDS_P1;SDS_P2;PMS_P1;PMS_P2;Temp;Humidity;BMP_temperature;BMP_pressure;BME280_temperature;BME280_humidity;BME280_pressure;Samples;Min_cycle;Max_cycle;Signal;HPM_P1;HPM_P2
2022/02/07 00:00:39;;;;;;;6.13;1.30;;;4.30;99.90;;;;;;5135768;27;20121;-78
2022/02/07 00:05:31;;;;;;;14.25;1.65;;;4.30;99.90;;;;;;5136135;27;20033;-77
2022/02/07 00:07:58;;;;;;;13.90;2.42;;;4.40;99.90;;;;;;5135593;27;20107;-77
2022/02/07 00:10:25;;;;;;;19.52;1.40;;;4.50;99.90;;;;;;5135161;27;20044;-77
2022/02/07 00:12:51;;;;;;;9.85;1.08;;;4.60;99.90;;;;;;5138371;27;20023;-77
2022/02/07 00:15:18;;;;;;;11.50;1.45;;;4.50;99.90;;;;;;5116866;27;20023;-77
2022/02/07 00:17:45;;;;;;;9.57;1.42;;;4.60;99.90;;;;;;5134443;27;20024;-77
2022/02/07 00:20:22;;;;;;;3.47;0.68;;;4.60;99.90;;;;;;5134683;27;20034;-77
2022/02/07 00:22:48;;;;;;;18.23;1.45;;;4.60;99.90;;;;;;5134510;27;20020;-77
2022/02/07 00:25:15;;;;;;;13.02;1.95;;;4.50;99.90;;;;;;5134654;27;20023;-77
2022/02/07 00:27:41;;;;;;;9.15;1.10;;;4.30;99.90;;;;;;5135006;27;20372;-77
2022/02/07 00:30:09;;;;;;;9.95;1.60;;;4.40;99.90;;;;;;5134065;27;20139;-77
2022/02/07 00:32:35;;;;;;;17.00;1.20;;;4.40;99.90;;;;;;5135735;27;20027;-77
2022/02/07 00:35:02;;;;;;;7.45;2.78;;;4.40;99.90;;;;;;5135116;27;20576;-77
2022/02/07 00:37:30;;;;;;;15.20;1.52;;;4.40;99.90;;;;;;5134521;27;20080;-77
2022/02/07 00:40:05;;;;;;;18.17;1.65;;;4.30;99.90;;;;;;5135305;27;20031;-78
2022/02/07 00:42:35;;;;;;;13.20;1.75;;;4.40;99.90;;;;;;5135830;27;20072;-77
2022/02/07 00:45:06;;;;;;;15.85;2.42;;;4.40;99.90;;;;;;5134546;27;20059;-77
2022/02/07 00:47:31;;;;;;;18.02;1.95;;;4.40;99.90;;;;;;5135094;27;20033;-77
2022/02/07 00:49:57;;;;;;;14.30;2.53;;;4.40;99.90;;;;;;5134579;27;20034;-77
2022/02/07 00:52:25;;;;;;;13.88;1.63;;;4.40;99.90;;;;;;5133358;27;20019;-77
2022/02/07 00:54:51;;;;;;;15.68;1.90;;;4.50;99.90;;;;;;5134444;27;20031;-77
2022/02/07 00:57:17;;;;;;;23.55;3.80;;;4.50;99.90;;;;;;5134135;27;20023;-77
2022/02/07 00:59:42;;;;;;;20.52;2.05;;;4.50;99.90;;;;;;5133532;27;20102;-77
2022/02/07 01:02:08;;;;;;;19.30;2.58;;;4.60;99.90;;;;;;5137182;27;20023;-75
2022/02/07 01:04:34;;;;;;;16.42;3.05;;;4.50;99.90;;;;;;5136337;27;20410;-77
2022/02/07 01:07:03;;;;;;;14.02;1.70;;;4.60;99.90;;;;;;5133724;27;20031;-76
2022/02/07 01:09:37;;;;;;;13.57;1.77;;;4.50;99.90;;;;;;5133619;27;20505;-74
2022/02/07 01:12:11;;;;;;;14.48;3.00;;;4.40;99.90;;;;;;5133972;27;20261;-75
2022/02/07 01:20:13;;;;;;;;;;;4.60;99.90;;;;;;5133583;27;20059;-76
2022/02/07 01:23:09;;;;;;;20.92;1.83;;;4.60;99.90;;;;;;5134464;27;20014;-76
2022/02/07 01:58:01;;;;;;;9.93;1.80;;;4.00;99.90;;;;;;5134262;28;20023;-77
2022/02/07 02:00:27;;;;;;;9.55;1.42;;;4.00;99.90;;;;;;5133720;28;20031;-75
2022/02/07 02:02:53;;;;;;;11.65;1.90;;;3.90;99.90;;;;;;5133297;28;20031;-77
2022/02/07 02:05:19;;;;;;;13.40;1.92;;;3.90;99.90;;;;;;5133759;27;20034;-77
2022/02/07 02:07:48;;;;;;;8.38;1.42;;;3.80;99.90;;;;;;5135568;27;20019;-75
2022/02/07 02:10:13;;;;;;;16.50;2.90;;;3.90;99.90;;;;;;5137059;27;20061;-77
2022/02/07 02:12:55;;;;;;;17.63;3.78;;;4.00;99.90;;;;;;5138614;27;20016;-77
2022/02/07 02:15:35;;;;;;;14.93;2.33;;;4.00;99.90;;;;;;5136685;27;20129;-78
2022/02/07 02:34:12;;;;;;;10.73;2.00;;;4.30;99.90;;;;;;5117449;28;20030;-76
2022/02/07 02:36:38;;;;;;;17.80;3.03;;;4.40;99.90;;;;;;5115828;28;20055;-77
2022/02/07 02:47:06;;;;;;;17.38;2.78;;;4.70;99.90;;;;;;5123116;28;20031;-77
2022/02/07 02:49:43;;;;;;;10.13;2.08;;;4.70;99.90;;;;;;5119944;28;20537;-78
2022/02/07 02:52:09;;;;;;;16.27;2.10;;;4.70;99.90;;;;;;5116538;28;20080;-77
2022/02/07 02:54:34;;;;;;;17.60;2.47;;;4.70;99.90;;;;;;5118513;28;20023;-77
2022/02/07 02:57:00;;;;;;;14.40;1.75;;;4.80;99.90;;;;;;5115998;28;20031;-77
2022/02/07 02:59:25;;;;;;;20.48;2.78;;;4.80;99.90;;;;;;5114977;28;20470;-75
2022/02/07 03:01:51;;;;;;;21.42;3.25;;;4.90;99.90;;;;;;5116294;28;20032;-76
2022/02/07 03:04:19;;;;;;;20.85;2.53;;;5.00;99.90;;;;;;5121302;28;20070;-76
2022/02/07 03:06:45;;;;;;;15.70;2.40;;;4.90;99.90;;;;;;5135083;27;20122;-74
2022/02/07 03:09:14;;;;;;;20.80;2.17;;;5.00;99.90;;;;;;5134916;27;20478;-75
2022/02/07 03:11:40;;;;;;;21.85;2.95;;;4.90;99.90;;;;;;5134576;27;20095;-77
2022/02/07 03:14:07;;;;;;;18.33;2.33;;;4.90;99.90;;;;;;5135272;28;20050;-77
2022/02/07 03:16:37;;;;;;;16.77;2.30;;;5.00;99.90;;;;;;5135537;28;20057;-77
2022/02/07 03:19:04;;;;;;;20.25;2.67;;;5.10;99.90;;;;;;5133930;27;20031;-77
2022/02/07 03:21:29;;;;;;;4.82;1.25;;;5.00;99.90;;;;;;5135913;27;20029;-77
2022/02/07 03:23:55;;;;;;;13.75;1.52;;;5.10;99.90;;;;;;5135676;27;20412;-75
2022/02/07 03:26:21;;;;;;;7.65;2.00;;;5.10;99.90;;;;;;5134419;28;20015;-74
2022/02/07 03:28:48;;;;;;;17.50;3.53;;;5.10;99.90;;;;;;5135603;27;20023;-75
2022/02/07 03:31:18;;;;;;;17.73;2.63;;;5.10;99.90;;;;;;5134814;28;20036;-75
2022/02/07 03:33:44;;;;;;;17.60;1.63;;;5.00;99.90;;;;;;5135701;27;20020;-75
2022/02/07 03:36:11;;;;;;;15.85;2.20;;;5.10;99.90;;;;;;5134839;27;20048;-75
2022/02/07 03:38:37;;;;;;;20.73;2.20;;;5.20;99.90;;;;;;5135356;28;20031;-74
2022/02/07 03:41:03;;;;;;;22.63;2.05;;;5.20;99.90;;;;;;5134629;28;20034;-77
2022/02/07 03:43:29;;;;;;;25.80;2.95;;;5.30;99.90;;;;;;5134818;27;20051;-74
2022/02/07 03:45:55;;;;;;;19.67;3.63;;;5.20;99.90;;;;;;5134831;28;20104;-77
2022/02/07 03:48:21;;;;;;;13.57;1.85;;;5.20;99.90;;;;;;5133989;28;20027;-77
2022/02/07 03:50:46;;;;;;;13.25;2.13;;;5.20;99.90;;;;;;5134158;27;20035;-77
2022/02/07 03:53:12;;;;;;;14.65;1.90;;;5.30;99.90;;;;;;5134524;27;20118;-77
2022/02/07 03:55:39;;;;;;;18.77;2.22;;;5.30;99.90;;;;;;5134620;28;20061;-77
2022/02/07 03:58:05;;;;;;;15.77;2.35;;;5.30;99.90;;;;;;5135134;27;20023;-75
2022/02/07 04:00:33;;;;;;;9.90;1.70;;;5.30;99.90;;;;;;5134491;28;20024;-77
2022/02/07 04:03:03;;;;;;;18.98;2.58;;;5.40;99.90;;;;;;5096569;27;1049737;-77
2022/02/07 04:07:57;;;;;;;16.83;3.25;;;5.60;99.90;;;;;;5134361;27;20027;-77
2022/02/07 04:10:24;;;;;;;21.60;2.75;;;5.60;99.90;;;;;;5137819;27;20035;-77
2022/02/07 04:12:57;;;;;;;18.40;3.25;;;5.60;99.90;;;;;;5117311;27;20029;-77
2022/02/07 04:15:22;;;;;;;19.95;4.22;;;5.70;99.90;;;;;;5134850;27;20031;-77
2022/02/07 04:17:55;;;;;;;29.33;4.03;;;5.70;99.90;;;;;;5135912;27;20118;-77
2022/02/07 04:20:21;;;;;;;19.98;3.65;;;5.80;99.90;;;;;;5135422;27;20034;-77
2022/02/07 04:22:47;;;;;;;15.57;2.55;;;5.70;99.90;;;;;;5135058;27;20015;-77
2022/02/07 04:25:13;;;;;;;21.58;3.80;;;5.80;99.90;;;;;;5134873;27;20526;-77
2022/02/07 04:27:38;;;;;;;14.20;2.35;;;5.70;99.90;;;;;;5134867;27;20024;-78
2022/02/07 04:30:06;;;;;;;25.90;2.88;;;5.70;99.90;;;;;;5133839;27;20100;-77
2022/02/07 04:32:32;;;;;;;15.07;2.70;;;5.80;99.90;;;;;;5135424;27;20565;-77
2022/02/07 04:34:58;;;;;;;12.35;2.22;;;5.90;99.90;;;;;;5135657;27;20106;-77
2022/02/07 04:37:24;;;;;;;11.40;2.17;;;5.90;99.90;;;;;;5134129;27;20099;-77
2022/02/07 04:39:51;;;;;;;24.48;3.05;;;6.00;99.90;;;;;;5135424;27;20027;-77
2022/02/07 04:42:18;;;;;;;23.42;2.92;;;5.90;99.90;;;;;;5134602;27;20030;-77
2022/02/07 04:51:11;;;;;;;13.38;2.05;;;5.90;99.90;;;;;;5133568;27;20143;-77
2022/02/07 04:53:18;;;;;;;22.15;1.85;;;6.00;99.90;;;;;;5127299;27;20077;-78
2022/02/07 04:58:28;;;;;;;12.38;2.10;;;5.90;99.90;;;;;;5134033;27;20022;-76
2022/02/07 05:01:09;;;;;;;29.70;2.92;;;6.00;99.90;;;;;;5134136;27;20038;-77
2022/02/07 05:03:41;;;;;;;20.13;2.67;;;6.00;99.90;;;;;;5134069;27;20122;-77
2022/02/07 05:14:20;;;;;;;21.45;2.80;;;5.90;99.90;;;;;;5134267;27;20069;-77
2022/02/07 05:16:48;;;;;;;25.52;2.95;;;5.90;99.90;;;;;;5133668;27;20478;-75
2022/02/07 05:19:13;;;;;;;16.48;3.03;;;5.90;99.90;;;;;;5132825;27;20038;-76
2022/02/07 05:21:40;;;;;;;19.75;3.15;;;5.90;99.90;;;;;;5133985;27;20031;-78
2022/02/07 05:24:06;;;;;;;23.60;2.85;;;5.80;99.90;;;;;;5134893;27;20443;-77
2022/02/07 05:26:32;;;;;;;26.25;2.35;;;5.80;99.90;;;;;;5134426;27;20058;-77
2022/02/07 05:29:01;;;;;;;21.17;2.97;;;5.90;99.90;;;;;;5134451;27;20019;-77
2022/02/07 05:31:27;;;;;;;10.50;2.25;;;5.80;99.90;;;;;;5134011;27;20107;-77
2022/02/07 05:33:53;;;;;;;14.43;2.13;;;5.50;99.90;;;;;;5133965;27;20047;-76
2022/02/07 05:36:19;;;;;;;11.85;1.65;;;5.50;99.90;;;;;;5133587;27;20024;-77
2022/02/07 05:38:49;;;;;;;16.85;2.67;;;5.30;99.90;;;;;;5133724;27;20102;-76
2022/02/07 05:41:17;;;;;;;13.25;2.53;;;5.30;99.90;;;;;;5132507;27;20054;-76
2022/02/07 05:43:46;;;;;;;12.05;1.77;;;5.20;99.90;;;;;;5134122;27;20038;-77
2022/02/07 05:46:11;;;;;;;18.40;2.30;;;5.10;99.90;;;;;;5132907;27;20023;-77
2022/02/07 05:48:37;;;;;;;23.08;2.70;;;5.00;99.90;;;;;;5133704;27;20026;-77
2022/02/07 05:51:03;;;;;;;16.80;2.22;;;5.00;99.90;;;;;;5133649;27;20066;-76
2022/02/07 05:53:28;;;;;;;22.65;1.98;;;5.00;99.90;;;;;;5132889;27;20027;-76
2022/02/07 05:55:54;;;;;;;21.17;3.63;;;5.10;99.90;;;;;;5133584;27;20019;-77
2022/02/07 05:58:19;;;;;;;17.00;2.42;;;5.10;99.90;;;;;;5133897;28;20015;-76
2022/02/07 06:00:45;;;;;;;18.17;1.92;;;5.20;99.90;;;;;;5133326;28;20035;-77
2022/02/07 06:03:11;;;;;;;24.58;3.63;;;5.20;99.90;;;;;;5133380;28;20043;-77
2022/02/07 06:05:37;;;;;;;18.75;2.53;;;5.10;99.90;;;;;;5134094;27;20023;-75
2022/02/07 06:08:03;;;;;;;24.63;4.72;;;5.20;99.90;;;;;;5133256;28;20031;-75
2022/02/07 06:10:28;;;;;;;27.70;4.40;;;5.30;99.90;;;;;;5133536;28;20442;-76
2022/02/07 06:12:54;;;;;;;22.75;2.72;;;5.30;99.90;;;;;;5135833;28;20076;-76
2022/02/07 06:15:20;;;;;;;15.43;2.58;;;5.30;99.90;;;;;;5133243;28;20031;-75
2022/02/07 06:17:52;;;;;;;23.00;3.13;;;5.40;99.90;;;;;;5134369;27;20023;-75
2022/02/07 06:20:18;;;;;;;14.18;1.40;;;5.40;99.90;;;;;;5134017;28;20070;-76
2022/02/07 06:22:45;;;;;;;13.82;2.10;;;5.40;99.90;;;;;;5133017;28;20050;-77
2022/02/07 06:25:11;;;;;;;20.98;2.60;;;5.40;99.90;;;;;;5133485;28;20073;-77
2022/02/07 06:27:36;;;;;;;23.55;2.75;;;5.40;99.90;;;;;;5133305;28;20110;-77
2022/02/07 06:30:03;;;;;;;23.13;3.40;;;5.40;99.90;;;;;;5132968;27;20043;-78
2022/02/07 06:32:28;;;;;;;21.40;3.25;;;5.40;99.90;;;;;;5133429;27;20020;-77
2022/02/07 06:34:54;;;;;;;28.38;3.10;;;5.40;99.90;;;;;;5133954;27;20027;-77
2022/02/07 06:37:20;;;;;;;17.30;3.42;;;5.40;99.90;;;;;;5132893;28;20035;-78
2022/02/07 06:39:46;;;;;;;19.88;3.22;;;5.50;99.90;;;;;;5134002;27;20030;-77
2022/02/07 06:42:11;;;;;;;28.35;6.43;;;5.40;99.90;;;;;;5132874;27;20035;-77
2022/02/07 06:44:37;;;;;;;18.08;2.95;;;5.50;99.90;;;;;;5132491;27;20026;-78
2022/02/07 06:47:03;;;;;;;25.73;2.45;;;5.50;99.90;;;;;;5133169;27;20023;-78
2022/02/07 06:49:28;;;;;;;18.38;3.03;;;5.50;99.90;;;;;;5132059;28;20046;-78
2022/02/07 06:51:54;;;;;;;26.48;5.15;;;5.50;99.90;;;;;;5119657;28;20077;-77
2022/02/07 06:54:20;;;;;;;20.05;3.72;;;5.50;99.90;;;;;;5116889;27;20027;-77
2022/02/07 06:56:48;;;;;;;21.48;2.92;;;5.50;99.90;;;;;;5114923;27;20024;-77
2022/02/07 06:59:16;;;;;;;24.92;2.72;;;5.50;99.90;;;;;;5114304;27;20039;-78
2022/02/07 07:01:42;;;;;;;31.08;3.25;;;5.40;99.90;;;;;;5118925;27;20043;-78
2022/02/07 07:04:08;;;;;;;26.02;2.78;;;5.50;99.90;;;;;;5113565;27;20054;-77
2022/02/07 07:06:35;;;;;;;29.30;3.15;;;5.40;99.90;;;;;;5114362;27;20019;-78
2022/02/07 07:09:00;;;;;;;31.38;3.13;;;5.40;99.90;;;;;;5115195;27;20506;-77
2022/02/07 07:11:27;;;;;;;16.95;2.45;;;5.40;99.90;;;;;;5114188;28;20261;-78
2022/02/07 07:13:58;;;;;;;28.65;3.50;;;5.40;99.90;;;;;;5114068;28;20027;-77
2022/02/07 07:18:50;;;;;;;25.85;4.53;;;5.50;99.90;;;;;;5114444;28;20420;-76
2022/02/07 07:21:16;;;;;;;17.23;2.20;;;5.50;99.90;;;;;;5117639;27;20026;-77
2022/02/07 07:23:43;;;;;;;22.05;2.42;;;5.60;99.90;;;;;;5113600;27;20064;-75
2022/02/07 07:26:08;;;;;;;19.83;2.25;;;5.60;99.90;;;;;;5113152;28;20065;-75
2022/02/07 07:28:36;;;;;;;23.40;3.53;;;5.60;99.90;;;;;;5114230;28;20055;-75
2022/02/07 07:31:05;;;;;;;19.35;2.70;;;5.70;99.90;;;;;;5113551;28;20039;-76
2022/02/07 07:33:32;;;;;;;27.30;4.50;;;5.70;99.90;;;;;;5131882;27;20025;-76
2022/02/07 07:35:58;;;;;;;23.58;3.53;;;5.80;99.90;;;;;;5134708;27;20463;-75
2022/02/07 07:38:24;;;;;;;18.08;3.00;;;5.90;99.90;;;;;;5135990;27;20110;-75
2022/02/07 07:40:50;;;;;;;28.40;3.17;;;5.80;99.90;;;;;;5135705;27;20050;-75
2022/02/07 07:43:16;;;;;;;21.77;4.05;;;5.80;99.90;;;;;;5123920;27;20023;-75
2022/02/07 07:45:47;;;;;;;23.13;4.35;;;5.80;99.90;;;;;;5114554;28;20036;-74
2022/02/07 07:48:19;;;;;;;23.95;3.10;;;5.80;99.90;;;;;;5114187;28;20034;-75
2022/02/07 07:50:53;;;;;;;20.67;2.85;;;5.80;99.90;;;;;;5128512;27;20042;-75
2022/02/07 08:01:38;;;;;;;29.48;3.50;;;5.80;99.90;;;;;;5131220;27;20065;-83
2022/02/07 08:04:05;;;;;;;32.08;3.75;;;5.80;99.90;;;;;;5114957;28;20035;-75
2022/02/07 08:06:37;;;;;;;21.48;4.35;;;5.80;99.90;;;;;;5118685;27;20019;-77
2022/02/07 08:11:30;;;;;;;22.13;3.00;;;5.80;99.90;;;;;;5113874;27;20117;-77
2022/02/07 08:13:56;;;;;;;27.45;5.30;;;5.80;99.90;;;;;;5112174;27;20027;-76
2022/02/07 08:16:21;;;;;;;34.55;3.90;;;5.80;99.90;;;;;;5113807;28;20015;-76
2022/02/07 08:18:47;;;;;;;20.08;3.40;;;5.80;99.90;;;;;;5113177;28;20084;-76
2022/02/07 08:21:13;;;;;;;24.45;3.13;;;6.00;99.90;;;;;;5111542;28;20349;-75
2022/02/07 08:23:39;;;;;;;29.45;4.93;;;6.10;99.90;;;;;;5113737;28;20031;-75
2022/02/07 08:26:06;;;;;;;21.95;3.42;;;6.30;99.90;;;;;;5114184;28;20431;-75
2022/02/07 08:28:31;;;;;;;20.38;2.75;;;6.30;99.90;;;;;;5113244;28;20023;-73
2022/02/07 08:30:57;;;;;;;22.85;3.65;;;6.30;99.90;;;;;;5113747;28;20031;-74
2022/02/07 08:33:22;;;;;;;26.58;3.70;;;6.30;99.90;;;;;;5113986;28;20070;-74
2022/02/07 08:35:48;;;;;;;22.55;2.88;;;6.30;99.90;;;;;;5113059;28;20038;-73
2022/02/07 08:38:15;;;;;;;23.90;3.10;;;6.30;99.90;;;;;;5115799;28;20023;-75
2022/02/07 08:40:41;;;;;;;18.95;2.47;;;6.20;99.90;;;;;;5114308;28;20394;-75
2022/02/07 08:43:06;;;;;;;23.67;4.13;;;6.20;99.90;;;;;;5112993;28;20126;-76
2022/02/07 08:45:32;;;;;;;28.10;4.20;;;6.20;99.90;;;;;;5113909;28;20032;-75
2022/02/07 08:47:58;;;;;;;25.33;3.75;;;6.20;99.90;;;;;;5114663;28;20027;-77
2022/02/07 08:50:26;;;;;;;18.77;2.10;;;6.10;99.90;;;;;;5115113;28;20588;-77
2022/02/07 08:52:53;;;;;;;22.35;3.20;;;6.20;99.90;;;;;;5115307;28;20059;-76
2022/02/07 08:55:28;;;;;;;12.95;2.75;;;6.20;99.90;;;;;;5116134;27;20043;-76
2022/02/07 08:58:01;;;;;;;18.52;2.45;;;6.30;99.90;;;;;;5112284;28;20110;-76
2022/02/07 09:03:22;;;;;;;16.45;3.15;;;6.30;99.90;;;;;;5125675;27;20039;-76
2022/02/07 09:06:07;;;;;;;23.67;3.40;;;6.40;99.90;;;;;;5114169;28;20048;-76
2022/02/07 09:11:13;;;;;;;22.90;3.75;;;6.60;99.90;;;;;;5110258;28;20039;-77
2022/02/07 09:13:41;;;;;;;33.25;5.75;;;6.60;99.90;;;;;;5113081;28;20045;-76
2022/02/07 09:18:35;;;;;;;24.35;2.72;;;6.70;99.90;;;;;;5112698;27;20379;-76
2022/02/07 09:21:01;;;;;;;25.50;4.45;;;6.90;99.90;;;;;;5113353;28;20035;-76
2022/02/07 09:23:28;;;;;;;19.08;3.03;;;6.90;99.90;;;;;;5113514;28;20544;-76
2022/02/07 09:25:55;;;;;;;28.88;3.72;;;6.90;99.90;;;;;;5113205;28;20024;-76
2022/02/07 09:28:20;;;;;;;29.73;3.47;;;7.00;99.90;;;;;;5113160;28;20072;-77
2022/02/07 09:30:46;;;;;;;14.40;2.58;;;7.10;99.90;;;;;;5113907;28;20040;-76
2022/02/07 09:33:12;;;;;;;21.15;2.53;;;7.20;99.90;;;;;;5112995;28;20224;-76
2022/02/07 09:35:37;;;;;;;13.90;2.75;;;7.10;99.90;;;;;;5113748;28;20027;-75
2022/02/07 09:38:03;;;;;;;24.65;3.55;;;7.10;99.90;;;;;;5113675;28;20459;-76
2022/02/07 09:40:30;;;;;;;14.40;1.92;;;7.10;99.90;;;;;;5112896;28;20023;-76
2022/02/07 09:42:58;;;;;;;17.15;2.90;;;7.10;99.90;;;;;;5113979;28;20032;-77
2022/02/07 09:45:33;;;;;;;15.45;2.08;;;7.20;99.90;;;;;;5112336;28;20026;-77
2022/02/07 09:48:01;;;;;;;16.85;3.10;;;7.40;99.90;;;;;;5113695;28;20493;-76
2022/02/07 09:50:27;;;;;;;19.10;2.80;;;7.40;99.90;;;;;;5113158;28;20035;-76
2022/02/07 09:52:54;;;;;;;22.83;2.78;;;7.40;99.90;;;;;;5112964;28;20027;-75
2022/02/07 09:55:22;;;;;;;22.77;2.72;;;7.50;99.90;;;;;;5094185;28;20484;-76
2022/02/07 09:57:51;;;;;;;17.60;2.90;;;7.50;99.90;;;;;;5113644;28;20471;-77
2022/02/07 10:00:26;;;;;;;19.95;2.53;;;7.60;99.90;;;;;;5112355;28;20119;-77
2022/02/07 10:03:10;;;;;;;30.83;3.38;;;7.50;99.90;;;;;;5113669;28;20255;-76
2022/02/07 10:05:52;;;;;;;17.15;3.15;;;7.50;99.90;;;;;;5113728;28;20016;-76
2022/02/07 10:08:34;;;;;;;22.35;3.10;;;7.50;99.90;;;;;;5115308;28;20043;-75
2022/02/07 10:18:59;;;;;;;25.05;3.15;;;7.50;99.90;;;;;;5131528;28;20023;-75
2022/02/07 10:38:21;;;;;;;14.98;1.90;;;7.20;99.90;;;;;;5129398;27;20054;-77
2022/02/07 10:43:46;;;;;;;19.15;1.88;;;7.20;99.90;;;;;;5129118;27;20467;-74
2022/02/07 10:48:39;;;;;;;13.45;1.50;;;7.30;99.90;;;;;;5135972;27;20032;-75
2022/02/07 10:51:09;;;;;;;19.08;1.75;;;7.20;99.90;;;;;;5136135;27;20039;-77
2022/02/07 10:53:44;;;;;;;12.05;2.17;;;7.20;99.90;;;;;;5132675;27;20022;-75
2022/02/07 10:56:11;;;;;;;14.82;2.17;;;7.20;99.90;;;;;;5134212;27;20669;-76
2022/02/07 10:58:37;;;;;;;21.05;2.72;;;7.20;99.90;;;;;;5135894;27;20019;-76
2022/02/07 11:01:15;;;;;;;12.23;1.77;;;7.30;99.90;;;;;;5128826;27;20043;-76
2022/02/07 11:03:57;;;;;;;34.67;2.47;;;7.30;99.90;;;;;;5125333;27;20043;-76
2022/02/07 11:06:43;;;;;;;13.68;1.98;;;7.30;99.90;;;;;;5122348;27;20034;-76
2022/02/07 11:22:28;;;;;;;6.35;1.17;;;7.80;99.90;;;;;;5135080;27;20038;-76
2022/02/07 11:27:42;;;;;;;19.65;2.25;;;7.80;99.90;;;;;;5132916;27;20501;-76
2022/02/07 11:30:10;;;;;;;18.98;3.45;;;7.90;99.90;;;;;;5138685;27;20043;-77
2022/02/07 11:32:42;;;;;;;11.45;1.60;;;8.00;99.90;;;;;;5129672;27;20031;-76
2022/02/07 11:35:10;;;;;;;19.65;3.20;;;8.00;99.90;;;;;;5134247;27;20026;-76
2022/02/07 11:37:36;;;;;;;16.17;2.00;;;8.10;99.90;;;;;;5134057;27;20419;-76
2022/02/07 11:40:35;;;;;;;11.27;1.90;;;8.20;99.90;;;;;;5133573;27;20477;-76
2022/02/07 11:43:12;;;;;;;11.93;1.95;;;8.20;99.90;;;;;;5132703;27;20509;-76
2022/02/07 11:45:59;;;;;;;18.40;2.20;;;8.20;99.90;;;;;;5132316;27;20016;-77
2022/02/07 11:48:31;;;;;;;11.57;1.85;;;8.20;99.90;;;;;;5132770;27;20102;-77
2022/02/07 11:50:59;;;;;;;17.15;2.65;;;8.20;99.90;;;;;;5127970;27;20039;-77
2022/02/07 11:53:44;;;;;;;14.30;2.20;;;8.30;99.90;;;;;;5133806;27;20023;-77
2022/02/07 11:56:20;;;;;;;15.38;2.15;;;8.20;99.90;;;;;;5134620;27;20019;-76
2022/02/07 11:59:00;;;;;;;17.33;2.83;;;8.20;99.90;;;;;;5134640;27;20505;-75
2022/02/07 12:02:02;;;;;;;9.25;1.85;;;9.00;99.90;;;;;;5131057;27;20027;-77
2022/02/07 12:04:37;;;;;;;9.32;1.60;;;8.30;99.90;;;;;;5133440;27;20040;-77
2022/02/07 12:07:24;;;;;;;18.15;2.95;;;8.40;99.90;;;;;;5126570;27;20031;-77
2022/02/07 12:09:59;;;;;;;21.33;2.25;;;8.30;99.90;;;;;;5133793;27;20562;-77
2022/02/07 12:12:51;;;;;;;17.60;2.88;;;8.20;99.90;;;;;;5122877;27;20035;-77
2022/02/07 12:15:31;;;;;;;13.95;1.98;;;8.10;99.90;;;;;;5125792;27;20034;-76
2022/02/07 12:17:59;;;;;;;10.00;2.03;;;7.90;99.90;;;;;;5131422;27;20031;-77
2022/02/07 12:20:30;;;;;;;15.10;2.35;;;7.80;99.90;;;;;;5130452;27;20023;-74
2022/02/07 12:23:04;;;;;;;21.15;2.30;;;8.00;99.90;;;;;;5122950;27;20059;-75
2022/02/07 12:25:44;;;;;;;8.55;1.23;;;8.10;99.90;;;;;;5130174;27;20024;-75
2022/02/07 12:28:20;;;;;;;4.90;1.13;;;8.20;99.90;;;;;;5124166;27;20033;-75
2022/02/07 12:33:12;;;;;;;12.98;1.70;;;8.30;99.90;;;;;;5112150;28;20012;-77
2022/02/07 12:35:38;;;;;;;9.75;1.45;;;8.30;99.90;;;;;;5120932;27;20047;-77
2022/02/07 12:38:05;;;;;;;13.82;2.35;;;8.40;99.90;;;;;;5125403;27;20126;-76
2022/02/07 12:40:31;;;;;;;9.88;2.38;;;8.40;99.90;;;;;;5126681;27;20031;-75
2022/02/07 12:42:56;;;;;;;9.70;1.90;;;8.50;99.90;;;;;;5113305;27;20379;-77
2022/02/07 12:45:26;;;;;;;9.95;1.52;;;8.50;99.90;;;;;;5126193;27;20052;-76
2022/02/07 12:47:55;;;;;;;31.08;2.08;;;8.50;99.90;;;;;;5124190;27;20026;-78
2022/02/07 12:50:23;;;;;;;9.00;1.50;;;8.40;99.90;;;;;;5118347;27;20445;-77
2022/02/07 12:52:49;;;;;;;8.98;1.30;;;8.40;99.90;;;;;;5114096;28;20024;-77
2022/02/07 12:55:16;;;;;;;10.30;1.33;;;8.40;99.90;;;;;;5113611;28;20028;-77
2022/02/07 12:57:44;;;;;;;8.23;1.27;;;8.40;99.90;;;;;;5114806;28;20427;-77
2022/02/07 13:00:12;;;;;;;14.48;2.00;;;8.40;99.90;;;;;;5114460;28;20063;-77
2022/02/07 13:02:42;;;;;;;10.57;2.40;;;8.40;99.90;;;;;;5113646;28;20493;-77
2022/02/07 13:05:19;;;;;;;12.20;1.85;;;8.30;99.90;;;;;;5115586;27;20114;-76
2022/02/07 13:07:48;;;;;;;9.85;1.58;;;8.20;99.90;;;;;;5117308;27;20031;-76
2022/02/07 13:10:19;;;;;;;10.18;1.52;;;8.10;99.90;;;;;;5113794;28;20391;-76
2022/02/07 13:13:15;;;;;;;7.25;1.42;;;8.00;99.90;;;;;;5115095;28;21573;-76
2022/02/07 13:15:41;;;;;;;9.25;1.20;;;8.10;99.90;;;;;;5113427;28;20541;-77
2022/02/07 13:18:13;;;;;;;6.57;1.42;;;8.00;99.90;;;;;;5112039;28;20028;-77
2022/02/07 13:20:42;;;;;;;5.00;1.15;;;8.10;99.90;;;;;;5113426;28;20034;-77
2022/02/07 13:23:19;;;;;;;7.38;1.58;;;8.10;99.90;;;;;;5113077;28;20431;-76
2022/02/07 13:25:48;;;;;;;10.15;1.40;;;8.30;99.90;;;;;;5113106;28;20019;-77
2022/02/07 13:28:24;;;;;;;9.98;1.67;;;8.30;99.90;;;;;;5112352;27;20513;-75
2022/02/07 13:30:53;;;;;;;6.43;1.00;;;8.30;99.90;;;;;;5114762;27;20040;-76
2022/02/07 13:33:20;;;;;;;10.82;1.25;;;8.30;99.90;;;;;;5110933;28;20023;-76
2022/02/07 13:35:48;;;;;;;9.02;1.30;;;8.30;99.90;;;;;;5112474;28;20031;-75
2022/02/07 13:38:16;;;;;;;9.27;1.73;;;8.30;99.90;;;;;;5111793;28;20023;-76
2022/02/07 13:40:47;;;;;;;13.27;1.35;;;8.30;99.90;;;;;;5113451;28;20055;-77
2022/02/07 13:43:19;;;;;;;11.52;1.35;;;8.30;99.90;;;;;;5112438;28;20038;-76
2022/02/07 13:45:49;;;;;;;9.18;1.27;;;8.30;99.90;;;;;;5111789;28;20030;-75
2022/02/07 13:48:21;;;;;;;12.07;3.10;;;8.30;99.90;;;;;;5112936;28;20023;-77
2022/02/07 13:50:50;;;;;;;13.80;1.35;;;8.30;99.90;;;;;;5113693;28;20044;-78
2022/02/07 13:53:18;;;;;;;6.85;1.40;;;8.30;99.90;;;;;;5112683;28;20048;-79
2022/02/07 13:55:48;;;;;;;6.35;1.38;;;8.40;99.90;;;;;;5116145;28;20102;-79
2022/02/07 13:58:36;;;;;;;8.73;1.52;;;8.40;99.90;;;;;;5114529;28;20028;-80
2022/02/07 14:01:07;;;;;;;7.07;1.45;;;8.40;99.90;;;;;;5113371;28;20111;-79
2022/02/07 14:03:48;;;;;;;7.55;1.35;;;8.40;99.90;;;;;;5116458;28;20051;-78
2022/02/07 14:06:19;;;;;;;4.10;1.08;;;8.40;99.90;;;;;;5117400;28;20019;-78
2022/02/07 14:08:55;;;;;;;9.35;1.40;;;8.30;99.90;;;;;;5119321;28;20389;-77
2022/02/07 14:11:25;;;;;;;5.95;1.27;;;8.30;99.90;;;;;;5118402;28;20043;-78
2022/02/07 14:13:52;;;;;;;9.07;1.15;;;8.30;99.90;;;;;;5118506;28;20072;-77
2022/02/07 14:16:21;;;;;;;8.85;1.40;;;8.30;99.90;;;;;;5118927;28;20035;-78
2022/02/07 14:18:48;;;;;;;7.72;1.60;;;8.40;99.90;;;;;;5118624;28;20335;-79
2022/02/07 14:21:20;;;;;;;9.07;1.50;;;8.40;99.90;;;;;;5116413;28;20177;-79
2022/02/07 14:23:51;;;;;;;15.20;1.92;;;8.40;99.90;;;;;;5118156;28;20048;-79
2022/02/07 14:26:20;;;;;;;9.73;1.40;;;8.40;99.90;;;;;;5117912;28;20020;-79
2022/02/07 14:28:48;;;;;;;11.60;1.67;;;8.30;99.90;;;;;;5117289;28;20029;-79
2022/02/07 14:31:16;;;;;;;11.95;1.70;;;8.40;99.90;;;;;;5116790;28;20039;-79
2022/02/07 14:33:42;;;;;;;11.10;1.55;;;8.40;99.90;;;;;;5117339;28;20394;-78
2022/02/07 14:36:09;;;;;;;7.65;1.35;;;8.30;99.90;;;;;;5117753;28;20031;-79
2022/02/07 14:38:36;;;;;;;7.43;1.52;;;8.40;99.90;;;;;;5117919;28;20035;-78
2022/02/07 14:41:05;;;;;;;12.63;1.67;;;8.30;99.90;;;;;;5117146;28;20360;-79
2022/02/07 14:43:32;;;;;;;16.10;2.10;;;8.30;99.90;;;;;;5117904;28;20020;-77
2022/02/07 14:48:29;;;;;;;9.55;1.30;;;8.20;99.90;;;;;;5117447;28;20107;-78
2022/02/07 14:50:55;;;;;;;9.25;1.15;;;8.20;99.90;;;;;;5117702;28;20173;-77
2022/02/07 14:53:22;;;;;;;10.55;1.80;;;8.20;99.90;;;;;;5117309;28;20023;-77
2022/02/07 14:55:48;;;;;;;7.85;2.80;;;8.20;99.90;;;;;;5116811;28;20027;-77
2022/02/07 14:58:14;;;;;;;5.63;1.00;;;8.30;99.90;;;;;;5117073;28;20386;-77
2022/02/07 15:00:39;;;;;;;6.75;1.25;;;8.20;99.90;;;;;;5117291;28;20059;-77
2022/02/07 15:03:06;;;;;;;10.07;1.35;;;8.20;99.90;;;;;;5116024;28;20086;-79
2022/02/07 15:05:34;;;;;;;12.20;1.10;;;8.20;99.90;;;;;;5116082;28;20394;-77
2022/02/07 15:08:00;;;;;;;6.72;1.70;;;8.20;99.90;;;;;;5116998;28;20026;-77
2022/02/07 15:10:26;;;;;;;8.43;1.40;;;8.20;99.90;;;;;;5116224;28;20032;-78
2022/02/07 15:12:52;;;;;;;6.47;1.73;;;8.20;99.90;;;;;;5117171;28;20016;-78
2022/02/07 15:15:18;;;;;;;10.90;1.45;;;8.20;99.90;;;;;;5120457;28;20161;-77
2022/02/07 15:17:47;;;;;;;10.80;1.30;;;8.20;99.90;;;;;;5102075;28;20023;-75
2022/02/07 15:20:13;;;;;;;9.55;1.75;;;8.30;99.90;;;;;;5118244;28;20081;-77
2022/02/07 15:22:46;;;;;;;9.15;0.93;;;8.20;99.90;;;;;;5099702;28;20028;-77
2022/02/07 15:25:17;;;;;;;6.55;1.13;;;8.20;99.90;;;;;;5115099;28;20031;-78
2022/02/07 15:27:43;;;;;;;9.85;1.50;;;8.20;99.90;;;;;;5116116;28;20031;-79
2022/02/07 15:30:11;;;;;;;6.70;1.13;;;8.20;99.90;;;;;;5115360;28;20028;-78
2022/02/07 15:32:40;;;;;;;6.30;1.38;;;8.20;99.90;;;;;;5117133;27;20034;-78